createdAt,value
2023-01-20T00:00:33.841Z,0.49
2023-01-20T00:03:02.615Z,0.46
2023-01-20T00:05:33.891Z,0.45
2023-01-20T00:08:08.462Z,0.40
2023-01-20T00:10:43.080Z,0.49
2023-01-20T00:13:15.497Z,0.59
2023-01-20T00:15:51.200Z,0.69
2023-01-20T00:18:20.659Z,0.75
2023-01-20T00:20:50.667Z,0.84
2023-01-20T00:23:25.085Z,0.86
2023-01-20T00:25:52.821Z,0.89
2023-01-20T00:28:25.351Z,0.92
2023-01-20T00:31:00.368Z,1.02
2023-01-20T00:33:28.771Z,1.16
2023-01-20T00:38:43.707Z,1.16
2023-01-20T00:41:13.687Z,1.23
2023-01-20T00:43:42.710Z,1.31
2023-01-20T00:46:19.579Z,1.33
2023-01-20T00:48:52.768Z,1.37
2023-01-20T00:51:24.215Z,1.40
2023-01-20T00:54:01.107Z,1.55
2023-01-20T00:56:28.904Z,1.75
2023-01-20T00:58:58.471Z,1.97
2023-01-20T01:01:30.949Z,2.03
2023-01-20T01:04:01.482Z,1.76
2023-01-20T01:06:32.135Z,1.85
2023-01-20T01:09:03.297Z,1.98
2023-01-20T01:11:32.679Z,2.10
2023-01-20T01:14:00.731Z,1.74
2023-01-20T01:16:43.109Z,1.84
2023-01-20T01:19:11.120Z,1.85
2023-01-20T01:21:40.796Z,1.68
2023-01-20T01:24:11.053Z,1.72
2023-01-20T01:26:41.425Z,1.45
2023-01-20T01:29:10.243Z,1.55
2023-01-20T01:31:39.908Z,1.61
2023-01-20T01:34:08.092Z,1.52
2023-01-20T01:36:43.949Z,1.46
2023-01-20T01:39:19.077Z,1.48
2023-01-20T01:41:48.418Z,1.45
2023-01-20T01:44:18.697Z,1.44
2023-01-20T01:46:50.106Z,1.32
2023-01-20T01:49:27.452Z,1.26
2023-01-20T01:52:04.129Z,1.22
2023-01-20T01:54:48.626Z,1.27
2023-01-20T01:57:28.045Z,1.26
2023-01-20T01:59:58.102Z,1.33
2023-01-20T02:02:33.320Z,1.32
2023-01-20T02:05:05.862Z,1.24
2023-01-20T02:07:39.043Z,1.48
2023-01-20T02:10:09.716Z,1.46
2023-01-20T02:12:40.915Z,1.62
2023-01-20T02:15:15.976Z,1.61
2023-01-20T02:17:59.050Z,1.58
2023-01-20T02:21:03.084Z,1.53
2023-01-20T02:24:09.882Z,1.48
2023-01-20T02:27:10.064Z,1.53
2023-01-20T02:30:15.015Z,1.55
2023-01-20T02:32:54.125Z,1.67
2023-01-20T02:35:27.965Z,1.72
2023-01-20T02:38:16.073Z,1.76
2023-01-20T02:40:56.866Z,1.59
2023-01-20T02:43:41.616Z,1.72
2023-01-20T02:46:15.841Z,1.69
2023-01-20T02:48:57.644Z,1.72
2023-01-20T02:51:31.946Z,1.58
2023-01-20T02:54:06.654Z,1.76
2023-01-20T02:56:41.585Z,1.73
2023-01-20T02:59:17.898Z,1.78
2023-01-20T03:02:01.789Z,1.58
2023-01-20T03:04:37.180Z,1.51
2023-01-20T03:07:09.462Z,1.67
2023-01-20T03:09:45.805Z,1.60
2023-01-20T03:12:25.475Z,1.65
2023-01-20T03:14:54.723Z,1.41
2023-01-20T03:17:25.057Z,1.43
2023-01-20T03:19:59.235Z,1.51
2023-01-20T03:22:29.924Z,1.59
2023-01-20T03:25:05.137Z,1.47
2023-01-20T03:27:37.509Z,1.64
2023-01-20T03:30:09.756Z,1.60
2023-01-20T03:32:44.311Z,1.53
2023-01-20T03:35:17.290Z,1.58
2023-01-20T03:37:46.888Z,1.68
2023-01-20T03:40:17.728Z,1.68
2023-01-20T03:43:02.095Z,1.63
2023-01-20T03:45:36.647Z,1.46
2023-01-20T03:48:12.380Z,1.79
2023-01-20T03:50:52.113Z,1.50
2023-01-20T03:53:31.222Z,1.50
2023-01-20T03:56:05.873Z,1.46
2023-01-20T03:58:37.477Z,1.40
2023-01-20T04:01:18.167Z,1.48
2023-01-20T04:03:49.830Z,1.57
2023-01-20T04:06:25.245Z,1.65
2023-01-20T04:08:57.211Z,1.61
2023-01-20T04:11:28.691Z,1.57
2023-01-20T04:13:57.706Z,1.61
2023-01-20T04:16:31.789Z,1.89
2023-01-20T04:19:00.594Z,1.70
2023-01-20T04:21:35.007Z,1.59
2023-01-20T04:24:08.018Z,1.65
2023-01-20T04:26:36.975Z,1.83
2023-01-20T04:29:12.951Z,1.59
2023-01-20T04:31:42.871Z,1.47
2023-01-20T04:34:16.356Z,1.50
2023-01-20T04:36:51.771Z,1.41
2023-01-20T04:39:23.240Z,1.45
2023-01-20T04:42:01.329Z,1.64
2023-01-20T04:44:30.853Z,1.66
2023-01-20T04:46:59.840Z,1.64
2023-01-20T04:49:37.556Z,1.66
2023-01-20T04:52:14.644Z,1.67
2023-01-20T04:54:44.635Z,1.66
2023-01-20T04:57:17.800Z,1.70
2023-01-20T04:59:46.395Z,1.51
2023-01-20T05:02:15.159Z,1.57
2023-01-20T05:04:46.266Z,1.60
2023-01-20T05:07:18.469Z,1.41
2023-01-20T05:09:46.871Z,1.57
2023-01-20T05:12:17.640Z,1.42
2023-01-20T05:14:45.997Z,1.36
2023-01-20T05:17:24.579Z,1.42
2023-01-20T05:19:54.018Z,1.46
2023-01-20T05:22:27.802Z,1.49
2023-01-20T05:24:57.271Z,1.59
2023-01-20T05:27:25.923Z,1.71
2023-01-20T05:29:54.866Z,1.69
2023-01-20T05:32:24.449Z,1.64
2023-01-20T05:35:03.455Z,1.57
2023-01-20T05:37:36.259Z,1.60
2023-01-20T05:40:05.760Z,1.48
2023-01-20T05:42:49.298Z,1.54
2023-01-20T05:45:19.608Z,1.55
2023-01-20T05:47:50.042Z,1.56
2023-01-20T05:50:19.385Z,1.60
2023-01-20T05:52:57.369Z,1.36
2023-01-20T05:55:30.909Z,1.40
2023-01-20T05:58:02.890Z,1.39
2023-01-20T06:00:31.379Z,1.39
2023-01-20T06:03:09.702Z,1.46
2023-01-20T06:05:40.070Z,1.41
2023-01-20T06:08:09.320Z,1.51
2023-01-20T06:10:39.866Z,1.41
2023-01-20T06:13:10.038Z,1.55
2023-01-20T06:15:38.138Z,1.57
2023-01-20T06:18:06.100Z,1.48
2023-01-20T06:20:34.776Z,1.33
2023-01-20T06:25:50.939Z,1.31
2023-01-20T06:28:20.783Z,1.38
2023-01-20T06:30:52.133Z,1.29
2023-01-20T06:33:20.615Z,1.33
2023-01-20T06:35:49.391Z,1.23
2023-01-20T06:38:19.536Z,1.43
2023-01-20T06:40:53.096Z,1.70
2023-01-20T06:43:24.323Z,1.30
2023-01-20T06:45:59.018Z,1.29
2023-01-20T06:48:32.061Z,1.37
2023-01-20T06:51:05.140Z,1.25
2023-01-20T06:53:37.415Z,1.39
2023-01-20T06:56:09.282Z,1.80
2023-01-20T06:58:42.552Z,2.34
2023-01-20T07:01:13.325Z,2.29
2023-01-20T07:03:47.398Z,1.94
2023-01-20T07:06:20.044Z,1.72
2023-01-20T07:08:50.088Z,1.58
2023-01-20T07:11:32.388Z,1.55
2023-01-20T07:14:02.862Z,1.55
2023-01-20T07:16:33.856Z,1.55
2023-01-20T07:19:02.293Z,1.66
2023-01-20T07:21:36.518Z,1.63
2023-01-20T07:26:56.748Z,1.51
2023-01-20T07:29:27.811Z,1.63
2023-01-20T07:31:59.299Z,1.68
2023-01-20T07:34:29.960Z,1.67
2023-01-20T07:37:03.587Z,1.58
2023-01-20T07:39:36.334Z,1.59
2023-01-20T07:42:06.583Z,1.61
2023-01-20T07:44:34.349Z,1.77
2023-01-20T07:47:09.604Z,1.74
2023-01-20T07:49:41.274Z,1.66
2023-01-20T07:52:10.822Z,1.67
2023-01-20T07:54:40.719Z,2.53
2023-01-20T07:57:11.921Z,2.59
2023-01-20T07:59:44.001Z,2.23
2023-01-20T08:02:13.389Z,1.94
2023-01-20T08:04:44.074Z,2.12
2023-01-20T08:07:14.666Z,2.08
2023-01-20T08:09:44.421Z,1.92
2023-01-20T08:12:14.982Z,1.92
2023-01-20T08:14:43.203Z,1.93
2023-01-20T08:17:17.072Z,1.83
2023-01-20T08:19:46.273Z,1.91
2023-01-20T08:22:15.454Z,1.86
2023-01-20T08:24:43.862Z,2.07
2023-01-20T08:27:11.999Z,2.25
2023-01-20T08:29:43.296Z,2.19
2023-01-20T08:32:12.384Z,2.19
2023-01-20T08:34:41.049Z,2.15
2023-01-20T08:37:10.834Z,2.18
2023-01-20T08:39:44.018Z,2.20
2023-01-20T08:42:13.115Z,2.28
2023-01-20T08:44:43.802Z,2.30
2023-01-20T08:47:15.361Z,2.16
2023-01-20T08:49:56.978Z,2.29
2023-01-20T08:52:35.339Z,2.34
2023-01-20T08:55:14.715Z,2.21
2023-01-20T08:57:45.080Z,2.38
2023-01-20T09:00:19.041Z,2.34
2023-01-20T09:02:49.732Z,2.41
2023-01-20T09:05:21.315Z,2.48
2023-01-20T09:07:50.145Z,2.49
2023-01-20T09:10:20.971Z,2.50
2023-01-20T09:12:48.721Z,2.57
2023-01-20T09:15:25.444Z,3.10
2023-01-20T09:17:56.625Z,2.84
2023-01-20T09:20:28.318Z,2.86
2023-01-20T09:23:00.952Z,2.79
2023-01-20T09:25:28.737Z,2.72
2023-01-20T09:28:02.381Z,2.65
2023-01-20T09:30:33.521Z,2.67
2023-01-20T09:33:03.146Z,2.69
2023-01-20T09:35:32.873Z,2.98
2023-01-20T09:38:21.634Z,2.70
2023-01-20T09:41:20.314Z,2.53
2023-01-20T09:44:05.937Z,2.57
2023-01-20T09:47:10.684Z,2.47
2023-01-20T09:50:06.802Z,2.54
2023-01-20T09:52:57.751Z,2.63
2023-01-20T09:55:33.247Z,2.84
2023-01-20T09:58:12.754Z,2.82
2023-01-20T10:00:49.170Z,2.76
2023-01-20T10:03:39.459Z,2.46
2023-01-20T10:06:18.290Z,2.33
2023-01-20T10:09:04.991Z,2.29
2023-01-20T10:11:40.418Z,2.74
2023-01-20T10:14:17.013Z,2.50
2023-01-20T10:16:52.743Z,2.52
2023-01-20T10:19:31.005Z,2.78
2023-01-20T10:22:07.863Z,2.80
2023-01-20T10:24:45.578Z,2.82
2023-01-20T10:27:20.634Z,2.91
2023-01-20T10:29:58.268Z,3.02
2023-01-20T10:32:34.653Z,2.90
2023-01-20T10:35:11.272Z,3.03
2023-01-20T10:37:43.326Z,3.11
2023-01-20T10:40:27.471Z,2.99
2023-01-20T10:43:00.460Z,3.42
2023-01-20T10:45:41.785Z,3.20
2023-01-20T10:48:30.033Z,3.07
2023-01-20T10:51:06.632Z,2.89
2023-01-20T10:53:52.171Z,2.56
2023-01-20T10:56:45.441Z,2.51
2023-01-20T10:59:23.431Z,2.72
2023-01-20T11:02:11.250Z,2.90
2023-01-20T11:04:44.875Z,3.01
2023-01-20T11:07:21.471Z,3.11
2023-01-20T11:09:50.349Z,3.25
2023-01-20T11:12:31.044Z,3.27
2023-01-20T11:15:13.273Z,3.65
2023-01-20T11:17:56.264Z,3.41
2023-01-20T11:20:29.720Z,3.69
2023-01-20T11:23:05.892Z,3.61
2023-01-20T11:25:38.659Z,3.53
2023-01-20T11:28:21.569Z,3.64
2023-01-20T11:30:55.731Z,3.76
2023-01-20T11:33:26.308Z,3.84
2023-01-20T11:36:02.646Z,4.08
2023-01-20T11:38:42.146Z,4.34
2023-01-20T11:41:20.999Z,4.11
2023-01-20T11:43:52.315Z,3.93
2023-01-20T11:46:25.214Z,4.21
2023-01-20T11:49:20.894Z,4.34
2023-01-20T11:51:54.789Z,4.14
2023-01-20T11:54:25.575Z,4.22
2023-01-20T11:57:17.338Z,4.35
2023-01-20T11:59:55.110Z,4.50
2023-01-20T12:02:27.336Z,4.24
2023-01-20T12:05:10.666Z,4.15
2023-01-20T12:07:45.866Z,3.86
2023-01-20T12:10:28.569Z,4.01
2023-01-20T12:13:03.841Z,4.30
2023-01-20T12:15:45.350Z,3.97
2023-01-20T12:18:21.055Z,3.90
2023-01-20T12:20:57.514Z,3.92
2023-01-20T12:23:39.413Z,3.98
2023-01-20T12:26:21.785Z,4.01
2023-01-20T12:29:02.149Z,4.20
2023-01-20T12:31:32.757Z,4.12
2023-01-20T12:34:05.020Z,4.27
2023-01-20T12:36:51.379Z,4.27
2023-01-20T12:43:18.295Z,4.75
2023-01-20T12:46:09.285Z,4.85
2023-01-20T12:48:49.838Z,4.60
2023-01-20T12:51:40.600Z,4.20
2023-01-20T12:54:47.771Z,4.03
2023-01-20T12:57:34.583Z,3.88
2023-01-20T13:00:33.877Z,4.31
2023-01-20T13:03:51.161Z,4.39
2023-01-20T13:07:00.112Z,4.14
2023-01-20T13:10:01.501Z,4.11
2023-01-20T13:12:49.152Z,4.09
2023-01-20T13:15:24.358Z,4.23
2023-01-20T13:18:25.184Z,4.23
2023-01-20T13:20:55.959Z,4.29
2023-01-20T13:23:37.852Z,4.25
2023-01-20T13:26:07.729Z,4.36
2023-01-20T13:28:40.566Z,4.71
2023-01-20T13:31:36.851Z,4.52
2023-01-20T13:34:36.860Z,4.74
2023-01-20T13:37:35.855Z,4.31
2023-01-20T13:40:45.728Z,4.38
2023-01-20T13:43:57.315Z,4.42
2023-01-20T13:46:55.842Z,4.45
2023-01-20T13:49:54.779Z,4.85
2023-01-20T13:53:01.618Z,4.58
2023-01-20T13:55:31.641Z,4.68
2023-01-20T13:58:00.578Z,4.72
2023-01-20T14:00:30.882Z,4.82
2023-01-20T14:03:30.315Z,5.14
2023-01-20T14:06:03.595Z,5.44
2023-01-20T14:08:39.698Z,5.48
2023-01-20T14:11:15.398Z,5.33
2023-01-20T14:13:52.331Z,5.19
2023-01-20T14:16:25.732Z,5.09
2023-01-20T14:19:00.211Z,4.97
2023-01-20T14:21:31.441Z,5.01
2023-01-20T14:23:59.971Z,4.66
2023-01-20T14:26:31.301Z,4.71
2023-01-20T14:29:09.713Z,4.62
2023-01-20T14:31:45.992Z,4.49
2023-01-20T14:34:27.219Z,4.60
2023-01-20T14:37:05.943Z,4.43
2023-01-20T14:39:34.928Z,4.57
2023-01-20T14:42:07.154Z,4.39
2023-01-20T14:44:37.387Z,4.43
2023-01-20T14:47:07.269Z,4.28
2023-01-20T14:49:39.458Z,4.46
2023-01-20T14:52:09.544Z,4.26
2023-01-20T14:54:45.547Z,4.06
2023-01-20T14:57:28.914Z,4.07
2023-01-20T15:00:23.195Z,4.04
2023-01-20T15:03:10.398Z,4.06
2023-01-20T15:06:01.133Z,4.14
2023-01-20T15:09:04.418Z,4.14
2023-01-20T15:11:53.106Z,4.08
2023-01-20T15:14:32.493Z,3.95
2023-01-20T15:17:04.092Z,4.00
2023-01-20T15:19:36.522Z,4.05
2023-01-20T15:22:29.053Z,4.03
2023-01-20T15:25:07.512Z,4.05
2023-01-20T15:27:40.609Z,3.86
2023-01-20T15:30:25.211Z,3.88
2023-01-20T15:32:54.533Z,3.86
2023-01-20T15:35:26.884Z,3.88
2023-01-20T15:37:58.939Z,3.84
2023-01-20T15:40:29.162Z,3.82
2023-01-20T15:42:57.512Z,3.77
2023-01-20T15:45:26.901Z,3.68
2023-01-20T15:47:57.763Z,3.57
2023-01-20T15:50:28.880Z,3.49
2023-01-20T15:52:59.075Z,3.57
2023-01-20T15:55:33.133Z,3.56
2023-01-20T15:58:03.190Z,3.49
2023-01-20T16:00:33.660Z,3.51
2023-01-20T16:03:04.948Z,3.48
2023-01-20T16:05:34.806Z,3.44
2023-01-20T16:08:13.353Z,3.36
2023-01-20T16:10:41.780Z,3.42
2023-01-20T16:13:13.099Z,3.40
2023-01-20T16:15:51.795Z,3.35
2023-01-20T16:18:24.031Z,3.40
2023-01-20T16:20:52.131Z,3.35
2023-01-20T16:23:23.817Z,3.39
2023-01-20T16:25:52.648Z,3.44
2023-01-20T16:28:29.015Z,3.42
2023-01-20T16:31:02.931Z,3.45
2023-01-20T16:33:31.919Z,3.40
2023-01-20T16:36:08.029Z,3.42
2023-01-20T16:38:41.347Z,3.43
2023-01-20T16:41:21.903Z,3.44
2023-01-20T16:43:51.799Z,3.45
2023-01-20T16:46:24.959Z,3.46
2023-01-20T16:49:00.661Z,3.26
2023-01-20T16:51:30.601Z,3.48
2023-01-20T16:54:03.219Z,3.38
2023-01-20T16:56:33.071Z,3.47
2023-01-20T16:59:07.295Z,3.32
2023-01-20T17:01:35.295Z,3.46
2023-01-20T17:04:10.915Z,3.30
2023-01-20T17:06:43.285Z,3.23
2023-01-20T17:09:15.066Z,3.27
2023-01-20T17:11:43.289Z,3.14
2023-01-20T17:14:12.922Z,3.24
2023-01-20T17:16:42.643Z,3.26
2023-01-20T17:19:19.930Z,3.22
2023-01-20T17:21:54.674Z,3.27
2023-01-20T17:24:24.386Z,3.29
2023-01-20T17:26:59.361Z,3.28
2023-01-20T17:29:30.119Z,3.33
2023-01-20T17:32:00.006Z,3.35
2023-01-20T17:34:30.007Z,3.43
2023-01-20T17:37:00.789Z,3.48
2023-01-20T17:39:31.854Z,3.48
2023-01-20T17:42:03.185Z,3.41
2023-01-20T17:44:34.450Z,3.39
2023-01-20T17:47:05.522Z,3.39
2023-01-20T17:49:40.908Z,3.38
2023-01-20T17:52:10.383Z,3.39
2023-01-20T17:54:45.126Z,3.46
2023-01-20T17:57:15.113Z,3.43
2023-01-20T17:59:44.180Z,3.45
2023-01-20T18:02:12.237Z,3.44
2023-01-20T18:04:41.858Z,3.40
2023-01-20T18:07:09.944Z,3.54
2023-01-20T18:09:37.880Z,3.63
2023-01-20T18:12:10.295Z,3.50
2023-01-20T18:14:41.088Z,3.50
2023-01-20T18:17:13.660Z,3.46
2023-01-20T18:19:43.925Z,3.27
2023-01-20T18:22:14.536Z,3.31
2023-01-20T18:24:42.673Z,3.29
2023-01-20T18:27:12.258Z,3.29
2023-01-20T18:29:42.785Z,3.24
2023-01-20T18:32:10.949Z,3.30
2023-01-20T18:34:40.032Z,3.17
2023-01-20T18:37:11.593Z,3.02
2023-01-20T18:39:40.908Z,2.91
2023-01-20T18:42:12.375Z,2.82
2023-01-20T18:44:48.291Z,2.83
2023-01-20T18:47:16.551Z,2.72
2023-01-20T18:49:58.005Z,2.74
2023-01-20T18:52:26.178Z,2.72
2023-01-20T18:54:55.250Z,2.77
2023-01-20T18:57:24.207Z,2.78
2023-01-20T18:59:54.503Z,2.77
2023-01-20T19:02:24.227Z,2.84
2023-01-20T19:04:52.141Z,3.06
2023-01-20T19:07:23.350Z,3.16
2023-01-20T19:09:56.223Z,3.19
2023-01-20T19:12:27.718Z,3.26
2023-01-20T19:14:57.174Z,3.23
2023-01-20T19:17:29.257Z,3.21
2023-01-20T19:19:58.335Z,3.21
2023-01-20T19:22:28.803Z,3.22
2023-01-20T19:25:01.895Z,3.48
2023-01-20T19:27:32.363Z,3.26
2023-01-20T19:30:08.126Z,3.40
2023-01-20T19:32:37.081Z,3.81
2023-01-20T19:35:08.407Z,3.49
2023-01-20T19:37:44.064Z,3.31
2023-01-20T19:40:16.365Z,3.27
2023-01-20T19:42:51.269Z,3.18
2023-01-20T19:45:36.710Z,3.06
2023-01-20T19:48:12.463Z,2.94
2023-01-20T19:50:44.509Z,2.63
2023-01-20T19:53:13.739Z,2.68
2023-01-20T19:55:41.971Z,2.75
2023-01-20T19:58:14.160Z,2.67
2023-01-20T20:00:46.432Z,2.43
2023-01-20T20:03:19.181Z,2.59
2023-01-20T20:05:50.871Z,2.48
2023-01-20T20:08:19.720Z,2.63
2023-01-20T20:10:49.720Z,2.78
2023-01-20T20:13:21.976Z,2.89
2023-01-20T20:16:02.166Z,2.92
2023-01-20T20:18:29.976Z,2.98
2023-01-20T20:20:58.618Z,2.99
2023-01-20T20:23:28.054Z,2.92
2023-01-20T20:25:58.449Z,2.92
2023-01-20T20:28:29.891Z,2.85
2023-01-20T20:31:07.306Z,2.83
2023-01-20T20:33:36.875Z,2.75
2023-01-20T20:36:08.305Z,2.73
2023-01-20T20:38:36.967Z,2.81
2023-01-20T20:41:14.591Z,2.80
2023-01-20T20:43:46.337Z,2.73
2023-01-20T20:46:19.411Z,2.75
2023-01-20T20:48:55.240Z,2.66
2023-01-20T20:51:27.156Z,2.70
2023-01-20T20:53:57.151Z,2.68
2023-01-20T20:56:31.487Z,2.49
2023-01-20T20:59:02.779Z,2.57
2023-01-20T21:01:39.249Z,2.58
2023-01-20T21:04:08.260Z,2.60
2023-01-20T21:06:37.106Z,2.65
2023-01-20T21:09:05.000Z,2.75
2023-01-20T21:11:37.861Z,2.67
2023-01-20T21:14:07.303Z,2.74
2023-01-20T21:16:50.920Z,2.73
2023-01-20T21:19:20.809Z,2.73
2023-01-20T21:21:53.250Z,2.68
2023-01-20T21:24:26.036Z,2.64
2023-01-20T21:26:54.362Z,2.61
2023-01-20T21:29:36.188Z,2.72
2023-01-20T21:32:05.532Z,2.71
2023-01-20T21:34:33.923Z,2.74
2023-01-20T21:37:05.064Z,2.65
2023-01-20T21:39:39.334Z,2.60
2023-01-20T21:42:11.617Z,2.48
2023-01-20T21:44:43.325Z,2.51
2023-01-20T21:47:18.090Z,2.56
2023-01-20T21:50:04.815Z,2.61
2023-01-20T21:52:42.226Z,2.56
2023-01-20T21:55:18.464Z,2.61
2023-01-20T21:57:46.903Z,2.61
2023-01-20T22:00:18.956Z,2.57
2023-01-20T22:02:57.120Z,2.62
2023-01-20T22:05:28.075Z,2.70
2023-01-20T22:07:57.796Z,2.70
2023-01-20T22:10:27.306Z,2.78
2023-01-20T22:12:56.361Z,2.79
2023-01-20T22:15:24.700Z,2.71
2023-01-20T22:17:56.396Z,2.72
2023-01-20T22:20:24.254Z,2.78
2023-01-20T22:22:52.179Z,2.70
2023-01-20T22:25:24.319Z,2.68
2023-01-20T22:27:55.384Z,2.55
2023-01-20T22:30:27.730Z,2.55
2023-01-20T22:32:57.944Z,2.52
2023-01-20T22:35:26.320Z,2.45
2023-01-20T22:37:57.197Z,2.36
2023-01-20T22:40:25.557Z,2.35
2023-01-20T22:42:54.565Z,2.34
2023-01-20T22:45:30.608Z,2.37
2023-01-20T22:48:02.874Z,2.39
2023-01-20T22:50:34.915Z,2.42
2023-01-20T22:53:09.796Z,2.36
2023-01-20T22:55:49.022Z,2.36
2023-01-20T22:58:30.692Z,2.40
2023-01-20T23:00:59.966Z,2.38
2023-01-20T23:03:32.686Z,2.40
2023-01-20T23:06:06.264Z,2.47
2023-01-20T23:08:34.328Z,2.57
2023-01-20T23:11:06.627Z,2.41
2023-01-20T23:13:41.035Z,2.43
2023-01-20T23:16:14.994Z,2.38
2023-01-20T23:18:52.957Z,2.42
2023-01-20T23:21:21.830Z,2.46
2023-01-20T23:23:57.773Z,2.40
2023-01-20T23:26:29.067Z,2.44
2023-01-20T23:28:59.450Z,2.41
2023-01-20T23:31:34.047Z,2.33
2023-01-20T23:34:06.355Z,2.33
2023-01-20T23:36:35.947Z,2.39
2023-01-20T23:39:13.438Z,2.45
2023-01-20T23:41:41.734Z,2.54
2023-01-20T23:44:10.800Z,2.31
2023-01-20T23:46:40.021Z,2.47
2023-01-20T23:49:10.311Z,2.40
2023-01-20T23:51:41.422Z,2.51
2023-01-20T23:54:15.083Z,2.59
2023-01-20T23:56:49.348Z,2.43
2023-01-20T23:59:18.329Z,2.37
